createdAt,value
2018-02-12T00:00:49.717Z,92.73
2018-02-12T00:03:18.264Z,93.01
2018-02-12T00:05:46.685Z,92.88
2018-02-12T00:08:14.946Z,92.70
2018-02-12T00:10:43.404Z,93.34
2018-02-12T00:13:11.854Z,92.91
2018-02-12T00:15:40.483Z,92.73
2018-02-12T00:18:09.334Z,92.38
2018-02-12T00:20:37.724Z,93.10
2018-02-12T00:23:06.465Z,93.00
2018-02-12T00:25:34.779Z,93.14
2018-02-12T00:28:03.181Z,92.95
2018-02-12T00:30:31.632Z,93.08
2018-02-12T00:32:59.952Z,92.92
2018-02-12T00:35:28.402Z,92.73
2018-02-12T00:37:57.486Z,93.56
2018-02-12T00:40:25.776Z,93.51
2018-02-12T00:42:54.167Z,93.45
2018-02-12T00:45:22.741Z,93.32
2018-02-12T00:47:51.173Z,92.58
2018-02-12T00:50:19.472Z,93.06
2018-02-12T00:52:47.978Z,92.80
2018-02-12T00:55:16.457Z,92.99
2018-02-12T00:57:45.043Z,93.12
2018-02-12T01:00:13.447Z,93.46
2018-02-12T01:02:41.794Z,93.72
2018-02-12T01:05:10.089Z,93.20
2018-02-12T01:07:38.609Z,93.44
2018-02-12T01:10:07.882Z,93.44
2018-02-12T01:12:36.834Z,93.76
2018-02-12T01:15:05.634Z,93.59
2018-02-12T01:17:33.958Z,93.78
2018-02-12T01:20:02.253Z,93.79
2018-02-12T01:22:30.833Z,93.22
2018-02-12T01:24:59.143Z,93.84
2018-02-12T01:27:27.963Z,92.84
2018-02-12T01:29:56.367Z,93.11
2018-02-12T01:32:24.913Z,93.73
2018-02-12T01:34:53.413Z,92.70
2018-02-12T01:37:21.900Z,92.90
2018-02-12T01:39:50.221Z,93.07
2018-02-12T01:42:18.551Z,93.56
2018-02-12T01:44:46.858Z,93.20
2018-02-12T01:47:15.401Z,92.55
2018-02-12T01:49:43.814Z,92.64
2018-02-12T01:52:12.186Z,93.49
2018-02-12T01:54:40.459Z,93.71
2018-02-12T01:57:08.894Z,93.19
2018-02-12T01:59:37.270Z,93.71
2018-02-12T02:02:06.719Z,93.72
2018-02-12T02:04:35.131Z,93.43
2018-02-12T02:07:04.088Z,93.70
2018-02-12T02:09:32.377Z,93.65
2018-02-12T02:12:00.946Z,93.88
2018-02-12T02:14:29.426Z,93.30
2018-02-12T02:16:57.721Z,93.77
2018-02-12T02:19:26.166Z,92.68
2018-02-12T02:21:54.632Z,93.81
2018-02-12T02:24:22.991Z,93.05
2018-02-12T02:26:51.338Z,93.14
2018-02-12T02:29:19.697Z,94.18
2018-02-12T02:31:48.064Z,93.93
2018-02-12T02:34:16.481Z,93.89
2018-02-12T02:36:46.532Z,93.88
2018-02-12T02:39:15.000Z,93.64
2018-02-12T02:41:43.321Z,93.58
2018-02-12T02:44:12.522Z,93.68
2018-02-12T02:46:41.218Z,93.86
2018-02-12T02:49:09.646Z,93.85
2018-02-12T02:51:51.760Z,92.77
2018-02-12T02:54:27.681Z,93.48
2018-02-12T02:57:14.883Z,93.86
2018-02-12T02:59:46.858Z,93.90
2018-02-12T03:02:15.423Z,94.08
2018-02-12T03:04:43.822Z,93.75
2018-02-12T03:07:12.631Z,93.07
2018-02-12T03:09:40.903Z,93.66
2018-02-12T03:12:09.406Z,93.88
2018-02-12T03:14:41.785Z,93.78
2018-02-12T03:17:10.654Z,93.70
2018-02-12T03:22:38.885Z,93.84
2018-02-12T03:25:07.941Z,93.62
2018-02-12T03:27:36.846Z,93.85
2018-02-12T03:30:04.900Z,93.70
2018-02-12T03:32:38.398Z,92.86
2018-02-12T03:35:07.582Z,93.71
2018-02-12T03:37:35.960Z,93.30
2018-02-12T03:40:04.685Z,93.68
2018-02-12T03:42:33.127Z,93.33
2018-02-12T03:45:01.440Z,93.35
2018-02-12T03:47:31.253Z,93.38
2018-02-12T03:49:59.574Z,93.71
2018-02-12T03:52:28.232Z,93.14
2018-02-12T03:54:56.578Z,92.85
2018-02-12T03:57:25.495Z,92.72
2018-02-12T03:59:54.778Z,92.58
2018-02-12T04:02:23.176Z,92.41
2018-02-12T04:04:51.650Z,92.34
2018-02-12T04:07:22.270Z,92.02
2018-02-12T04:09:50.646Z,92.57
2018-02-12T04:12:19.502Z,92.95
2018-02-12T04:14:48.321Z,92.59
2018-02-12T04:17:16.701Z,92.62
2018-02-12T04:19:45.311Z,92.84
2018-02-12T04:22:13.761Z,92.40
2018-02-12T04:24:42.023Z,91.90
2018-02-12T04:27:10.519Z,91.76
2018-02-12T04:29:38.880Z,92.01
2018-02-12T04:32:08.805Z,91.69
2018-02-12T04:34:40.490Z,90.87
2018-02-12T04:37:09.415Z,90.78
2018-02-12T04:39:38.349Z,91.41
2018-02-12T04:42:06.751Z,90.71
2018-02-12T04:44:35.842Z,90.70
2018-02-12T04:47:04.849Z,90.74
2018-02-12T04:49:33.311Z,91.14
2018-02-12T04:52:01.924Z,90.74
2018-02-12T04:54:30.226Z,90.73
2018-02-12T04:56:58.801Z,91.29
2018-02-12T04:59:27.371Z,91.37
2018-02-12T05:04:51.523Z,90.63
2018-02-12T05:07:21.941Z,89.94
2018-02-12T05:09:50.606Z,89.82
2018-02-12T05:12:21.149Z,90.20
2018-02-12T05:14:50.451Z,90.60
2018-02-12T05:17:22.528Z,91.36
2018-02-12T05:19:51.591Z,89.50
2018-02-12T05:22:19.914Z,89.05
2018-02-12T05:24:48.386Z,88.63
2018-02-12T05:27:16.727Z,89.00
2018-02-12T05:29:45.023Z,88.71
2018-02-12T05:32:13.543Z,89.29
2018-02-12T05:34:41.867Z,88.66
2018-02-12T05:37:10.307Z,88.86
2018-02-12T05:39:41.382Z,88.77
2018-02-12T05:42:09.924Z,88.92
2018-02-12T05:44:39.446Z,88.67
2018-02-12T05:47:08.315Z,87.81
2018-02-12T05:49:36.730Z,88.01
2018-02-12T05:52:06.984Z,88.15
2018-02-12T05:54:35.659Z,87.97
2018-02-12T05:57:04.783Z,87.62
2018-02-12T05:59:33.543Z,87.15
2018-02-12T06:02:03.279Z,88.13
2018-02-12T06:04:36.284Z,88.00
2018-02-12T06:07:05.094Z,86.94
2018-02-12T06:09:33.700Z,87.13
2018-02-12T06:12:02.049Z,87.20
2018-02-12T06:14:30.394Z,87.73
2018-02-12T06:17:04.694Z,87.68
2018-02-12T06:19:36.339Z,87.35
2018-02-12T06:22:05.213Z,87.92
2018-02-12T06:24:33.607Z,87.54
2018-02-12T06:27:02.243Z,87.79
2018-02-12T06:29:30.850Z,88.29
2018-02-12T06:32:00.182Z,88.03
2018-02-12T06:34:28.796Z,87.82
2018-02-12T06:36:57.263Z,87.97
2018-02-12T06:39:26.538Z,87.27
2018-02-12T06:41:54.974Z,87.85
2018-02-12T06:44:23.268Z,87.66
2018-02-12T06:46:54.911Z,87.41
2018-02-12T06:49:23.385Z,86.93
2018-02-12T06:51:51.862Z,86.40
2018-02-12T06:54:20.737Z,86.84
2018-02-12T06:56:49.092Z,86.76
2018-02-12T06:59:17.476Z,86.75
2018-02-12T07:01:46.026Z,86.10
2018-02-12T07:04:14.470Z,86.46
2018-02-12T07:06:43.411Z,85.20
2018-02-12T07:09:11.794Z,85.27
2018-02-12T07:11:40.828Z,84.93
2018-02-12T07:14:09.203Z,84.92
2018-02-12T07:16:37.680Z,84.37
2018-02-12T07:19:06.110Z,84.39
2018-02-12T07:21:34.659Z,85.06
2018-02-12T07:24:03.083Z,84.68
2018-02-12T07:26:31.443Z,84.92
2018-02-12T07:28:59.791Z,85.80
2018-02-12T07:31:28.573Z,85.19
2018-02-12T07:33:56.951Z,84.85
2018-02-12T07:36:25.703Z,84.37
2018-02-12T07:38:54.636Z,84.25
2018-02-12T07:41:23.218Z,84.27
2018-02-12T07:43:52.266Z,84.23
2018-02-12T07:46:23.827Z,83.66
2018-02-12T07:48:53.726Z,83.64
2018-02-12T07:51:23.057Z,83.43
2018-02-12T07:53:51.724Z,83.09
2018-02-12T07:56:20.556Z,82.37
2018-02-12T07:58:49.379Z,82.76
2018-02-12T08:01:18.429Z,83.30
2018-02-12T08:03:47.327Z,83.42
2018-02-12T08:06:15.771Z,83.88
2018-02-12T08:08:44.651Z,83.91
2018-02-12T08:11:13.276Z,83.45
2018-02-12T08:13:41.704Z,82.98
2018-02-12T08:16:10.076Z,82.81
2018-02-12T08:18:38.466Z,82.62
2018-02-12T08:21:07.135Z,82.48
2018-02-12T08:23:35.540Z,81.32
2018-02-12T08:26:03.872Z,80.78
2018-02-12T08:28:32.247Z,80.78
2018-02-12T08:31:00.601Z,81.31
2018-02-12T08:33:29.350Z,81.42
2018-02-12T08:35:59.414Z,81.13
2018-02-12T08:38:30.127Z,80.82
2018-02-12T08:40:58.498Z,80.27
2018-02-12T08:43:27.834Z,80.01
2018-02-12T08:45:57.258Z,79.27
2018-02-12T08:48:25.810Z,79.34
2018-02-12T08:50:55.396Z,79.92
2018-02-12T08:53:23.776Z,79.34
2018-02-12T08:55:52.800Z,79.25
2018-02-12T08:58:29.653Z,78.91
2018-02-12T09:01:01.138Z,77.68
2018-02-12T09:03:29.531Z,78.02
2018-02-12T09:05:57.941Z,77.08
2018-02-12T09:08:26.239Z,76.87
2018-02-12T09:10:54.578Z,77.40
2018-02-12T09:13:22.959Z,76.63
2018-02-12T09:15:51.335Z,75.61
2018-02-12T09:18:19.618Z,76.29
2018-02-12T09:20:47.965Z,76.80
2018-02-12T09:23:16.207Z,77.56
2018-02-12T09:25:44.504Z,77.96
2018-02-12T09:28:13.129Z,77.44
2018-02-12T09:30:41.597Z,77.92
2018-02-12T09:33:09.904Z,78.43
2018-02-12T09:35:38.236Z,77.18
2018-02-12T09:38:06.542Z,76.91
2018-02-12T09:40:34.884Z,76.28
2018-02-12T09:43:03.206Z,76.55
2018-02-12T09:45:31.702Z,76.56
2018-02-12T09:48:00.163Z,76.33
2018-02-12T09:50:28.471Z,76.14
2018-02-12T09:52:56.817Z,75.82
2018-02-12T09:55:25.214Z,75.10
2018-02-12T09:57:53.495Z,74.21
2018-02-12T10:00:21.794Z,73.29
2018-02-12T10:02:50.114Z,71.61
2018-02-12T10:05:18.531Z,69.46
2018-02-12T10:07:46.808Z,70.87
2018-02-12T10:10:15.127Z,70.19
2018-02-12T10:12:43.426Z,68.68
2018-02-12T10:15:11.779Z,69.40
2018-02-12T10:17:40.114Z,70.56
2018-02-12T10:20:08.471Z,70.53
2018-02-12T10:22:36.768Z,70.97
2018-02-12T10:25:05.072Z,71.21
2018-02-12T10:27:33.515Z,70.75
2018-02-12T10:30:01.820Z,71.29
2018-02-12T10:32:30.282Z,71.55
2018-02-12T10:34:58.553Z,71.55
2018-02-12T10:37:26.934Z,71.49
2018-02-12T10:39:55.196Z,72.92
2018-02-12T10:42:23.900Z,71.99
2018-02-12T10:44:52.195Z,70.91
2018-02-12T10:47:20.551Z,69.91
2018-02-12T10:49:48.910Z,70.08
2018-02-12T10:52:17.240Z,69.67
2018-02-12T10:54:45.710Z,68.22
2018-02-12T10:57:14.051Z,67.24
2018-02-12T10:59:44.331Z,64.56
2018-02-12T11:02:14.944Z,67.41
2018-02-12T11:04:43.286Z,67.86
2018-02-12T11:07:11.643Z,68.89
2018-02-12T11:09:40.147Z,70.05
2018-02-12T11:12:08.597Z,68.18
2018-02-12T11:14:37.111Z,67.43
2018-02-12T11:17:05.855Z,67.61
2018-02-12T11:19:34.990Z,66.94
2018-02-12T11:22:03.388Z,67.17
2018-02-12T11:24:31.679Z,66.73
2018-02-12T11:27:00.060Z,67.14
2018-02-12T11:29:28.384Z,66.46
2018-02-12T11:31:58.485Z,65.76
2018-02-12T11:34:26.974Z,66.29
2018-02-12T11:36:55.503Z,65.97
2018-02-12T11:39:23.957Z,63.67
2018-02-12T11:41:52.308Z,62.14
2018-02-12T11:44:20.618Z,56.56
2018-02-12T11:46:49.039Z,61.13
2018-02-12T11:49:17.414Z,60.37
2018-02-12T11:51:45.958Z,61.33
2018-02-12T11:54:14.247Z,58.16
2018-02-12T11:56:42.603Z,59.99
2018-02-12T11:59:17.435Z,53.80
2018-02-12T12:01:46.042Z,46.77
2018-02-12T12:04:14.367Z,45.40
2018-02-12T12:06:42.747Z,54.66
2018-02-12T12:09:11.055Z,58.47
2018-02-12T12:11:39.728Z,59.03
2018-02-12T12:14:08.055Z,59.41
2018-02-12T12:16:36.391Z,60.58
2018-02-12T12:19:04.756Z,61.68
2018-02-12T12:21:33.085Z,60.33
2018-02-12T12:24:01.379Z,60.57
2018-02-12T12:26:29.716Z,49.00
2018-02-12T12:28:58.122Z,45.30
2018-02-12T12:31:26.444Z,52.84
2018-02-12T12:33:54.728Z,45.46
2018-02-12T12:36:23.052Z,45.14
2018-02-12T12:38:51.371Z,50.12
2018-02-12T12:41:19.819Z,51.47
2018-02-12T12:43:48.115Z,46.61
2018-02-12T12:46:16.453Z,46.19
2018-02-12T12:48:45.222Z,48.67
2018-02-12T12:51:13.567Z,53.50
2018-02-12T12:53:41.883Z,54.48
2018-02-12T12:56:10.355Z,48.26
2018-02-12T12:58:38.824Z,46.41
2018-02-12T13:01:07.294Z,47.62
2018-02-12T13:03:35.722Z,50.45
2018-02-12T13:06:04.055Z,53.22
2018-02-12T13:08:32.368Z,54.44
2018-02-12T13:11:00.756Z,55.63
2018-02-12T13:13:29.146Z,56.81
2018-02-12T13:15:57.456Z,58.29
2018-02-12T13:18:25.719Z,51.43
2018-02-12T13:20:54.019Z,52.72
2018-02-12T13:23:22.526Z,50.49
2018-02-12T13:25:50.842Z,48.72
2018-02-12T13:28:19.131Z,48.50
2018-02-12T13:30:47.547Z,50.88
2018-02-12T13:33:15.934Z,47.43
2018-02-12T13:35:44.335Z,44.98
2018-02-12T13:38:12.650Z,48.74
2018-02-12T13:40:41.333Z,50.19
2018-02-12T13:43:09.641Z,43.92
2018-02-12T13:45:38.020Z,39.06
2018-02-12T13:48:06.365Z,40.38
2018-02-12T13:50:34.986Z,42.03
2018-02-12T13:53:03.341Z,41.56
2018-02-12T13:55:31.692Z,47.08
2018-02-12T13:58:00.014Z,50.42
2018-02-12T14:00:28.322Z,51.61
2018-02-12T14:02:56.650Z,55.55
2018-02-12T14:05:25.919Z,55.90
2018-02-12T14:07:54.362Z,49.59
2018-02-12T14:10:22.667Z,56.59
2018-02-12T14:12:50.968Z,56.02
2018-02-12T14:15:19.402Z,57.68
2018-02-12T14:17:47.822Z,58.58
2018-02-12T14:20:16.137Z,59.54
2018-02-12T14:22:44.439Z,59.27
2018-02-12T14:25:12.732Z,59.81
2018-02-12T14:27:40.998Z,61.00
2018-02-12T14:30:09.521Z,61.66
2018-02-12T14:32:37.965Z,62.20
2018-02-12T14:35:06.407Z,62.31
2018-02-12T14:37:34.700Z,61.83
2018-02-12T14:40:02.950Z,61.83
2018-02-12T14:42:31.434Z,61.82
2018-02-12T14:44:59.752Z,62.70
2018-02-12T14:47:28.477Z,62.38
2018-02-12T14:49:56.858Z,61.57
2018-02-12T14:52:25.397Z,62.69
2018-02-12T14:54:53.657Z,62.11
2018-02-12T14:57:22.122Z,63.00
2018-02-12T14:59:50.504Z,62.57
2018-02-12T15:02:18.860Z,62.65
2018-02-12T15:04:47.336Z,63.61
2018-02-12T15:07:15.648Z,63.80
2018-02-12T15:09:44.099Z,63.10
2018-02-12T15:12:12.404Z,63.17
2018-02-12T15:14:40.747Z,60.35
2018-02-12T15:17:09.068Z,62.09
2018-02-12T15:19:37.415Z,62.66
2018-02-12T15:22:05.907Z,63.40
2018-02-12T15:24:34.372Z,64.33
2018-02-12T15:27:02.897Z,63.85
2018-02-12T15:29:31.196Z,64.46
2018-02-12T15:31:59.614Z,64.84
2018-02-12T15:34:27.908Z,65.14
2018-02-12T15:36:56.249Z,64.98
2018-02-12T15:39:24.566Z,64.87
2018-02-12T15:41:53.040Z,65.21
2018-02-12T15:44:21.387Z,65.31
2018-02-12T15:46:49.808Z,66.43
2018-02-12T15:49:18.100Z,66.06
2018-02-12T15:51:46.421Z,66.70
2018-02-12T15:54:14.843Z,66.61
2018-02-12T15:56:43.177Z,67.55
2018-02-12T15:59:11.533Z,67.94
2018-02-12T16:01:40.103Z,68.24
2018-02-12T16:04:08.442Z,68.81
2018-02-12T16:06:36.782Z,68.77
2018-02-12T16:09:05.844Z,69.48
2018-02-12T16:11:34.618Z,69.50
2018-02-12T16:14:02.942Z,70.57
2018-02-12T16:16:31.251Z,69.34
2018-02-12T16:18:59.750Z,69.73
2018-02-12T16:21:28.068Z,70.34
2018-02-12T16:23:56.404Z,70.92
2018-02-12T16:26:25.075Z,71.17
2018-02-12T16:28:53.384Z,71.07
2018-02-12T16:31:21.943Z,72.01
2018-02-12T16:33:50.332Z,71.89
2018-02-12T16:36:18.675Z,72.30
2018-02-12T16:38:46.952Z,72.77
2018-02-12T16:41:15.319Z,72.84
2018-02-12T16:43:43.619Z,73.12
2018-02-12T16:46:11.924Z,73.41
2018-02-12T16:48:40.336Z,74.22
2018-02-12T16:51:08.682Z,74.74
2018-02-12T16:53:36.987Z,74.64
2018-02-12T16:56:05.307Z,74.92
2018-02-12T16:58:33.723Z,75.16
2018-02-12T17:01:02.044Z,75.06
2018-02-12T17:03:30.470Z,75.20
2018-02-12T17:05:58.825Z,75.96
2018-02-12T17:08:27.405Z,75.72
2018-02-12T17:10:55.796Z,75.76
2018-02-12T17:13:24.039Z,75.65
2018-02-12T17:15:52.546Z,76.17
2018-02-12T17:18:20.994Z,76.48
2018-02-12T17:20:49.287Z,76.34
2018-02-12T17:23:17.750Z,76.78
2018-02-12T17:25:46.044Z,76.22
2018-02-12T17:28:14.376Z,76.35
2018-02-12T17:30:42.684Z,76.72
2018-02-12T17:33:11.070Z,76.86
2018-02-12T17:35:39.368Z,76.56
2018-02-12T17:38:08.147Z,76.93
2018-02-12T17:40:36.638Z,77.07
2018-02-12T17:43:04.926Z,76.73
2018-02-12T17:45:34.146Z,76.98
2018-02-12T17:48:02.527Z,77.22
2018-02-12T17:50:30.870Z,77.06
2018-02-12T17:52:59.132Z,76.73
2018-02-12T17:55:28.126Z,76.93
2018-02-12T17:57:58.237Z,77.50
2018-02-12T18:00:26.744Z,77.63
2018-02-12T18:02:55.310Z,78.19
2018-02-12T18:05:23.834Z,78.06
2018-02-12T18:07:52.201Z,78.48
2018-02-12T18:10:21.382Z,78.45
2018-02-12T18:12:51.941Z,78.58
2018-02-12T18:15:20.735Z,79.10
2018-02-12T18:17:49.491Z,79.14
2018-02-12T18:20:20.395Z,78.92
2018-02-12T18:22:48.687Z,79.29
2018-02-12T18:25:17.087Z,79.53
2018-02-12T18:27:46.081Z,79.28
2018-02-12T18:30:14.778Z,79.71
2018-02-12T18:33:46.135Z,79.68
2018-02-12T18:36:14.502Z,80.16
2018-02-12T18:38:42.807Z,80.63
2018-02-12T18:41:11.166Z,80.69
2018-02-12T18:43:41.368Z,80.77
2018-02-12T18:46:11.378Z,80.95
2018-02-12T18:48:41.066Z,81.03
2018-02-12T18:51:12.107Z,81.02
2018-02-12T18:53:42.595Z,81.46
2018-02-12T18:56:12.004Z,81.58
2018-02-12T18:58:40.311Z,81.45
2018-02-12T19:01:09.714Z,81.60
2018-02-12T19:03:38.079Z,81.68
2018-02-12T19:06:06.380Z,81.38
2018-02-12T19:08:36.484Z,81.64
2018-02-12T19:11:04.810Z,81.91
2018-02-12T19:13:33.195Z,81.83
2018-02-12T19:16:01.562Z,81.68
2018-02-12T19:18:30.005Z,81.77
2018-02-12T19:20:58.494Z,81.73
2018-02-12T19:23:26.813Z,81.70
2018-02-12T19:25:55.185Z,82.05
2018-02-12T19:28:23.951Z,82.59
2018-02-12T19:30:52.294Z,82.14
2018-02-12T19:33:20.677Z,81.89
2018-02-12T19:35:48.990Z,82.50
2018-02-12T19:38:17.674Z,82.20
2018-02-12T19:40:45.987Z,82.16
2018-02-12T19:43:14.272Z,82.41
2018-02-12T19:45:42.719Z,82.35
2018-02-12T19:48:11.012Z,82.75
2018-02-12T19:50:39.381Z,82.39
2018-02-12T19:53:07.803Z,82.08
2018-02-12T19:55:36.111Z,82.31
2018-02-12T19:58:04.434Z,82.68
2018-02-12T20:00:32.923Z,82.82
2018-02-12T20:03:01.343Z,82.67
2018-02-12T20:05:30.042Z,82.82
2018-02-12T20:07:58.363Z,82.78
2018-02-12T20:10:26.669Z,82.74
2018-02-12T20:12:54.966Z,82.61
2018-02-12T20:15:23.516Z,83.12
2018-02-12T20:17:52.014Z,83.30
2018-02-12T20:20:20.524Z,83.54
2018-02-12T20:22:48.846Z,83.52
2018-02-12T20:25:17.292Z,83.50
2018-02-12T20:27:45.647Z,83.71
2018-02-12T20:30:13.950Z,83.12
2018-02-12T20:32:42.351Z,83.17
2018-02-12T20:35:10.843Z,83.30
2018-02-12T20:37:39.536Z,83.79
2018-02-12T20:40:07.954Z,83.59
2018-02-12T20:42:36.430Z,83.83
2018-02-12T20:45:04.815Z,83.86
2018-02-12T20:47:33.334Z,83.64
2018-02-12T20:50:01.578Z,83.61
2018-02-12T20:52:30.038Z,84.40
2018-02-12T20:54:58.301Z,84.86
2018-02-12T20:57:26.724Z,84.37
2018-02-12T20:59:55.070Z,84.61
2018-02-12T21:02:23.430Z,85.10
2018-02-12T21:04:51.706Z,85.46
2018-02-12T21:07:20.479Z,85.23
2018-02-12T21:09:48.800Z,85.37
2018-02-12T21:12:17.139Z,85.23
2018-02-12T21:14:45.443Z,85.10
2018-02-12T21:17:15.652Z,85.35
2018-02-12T21:19:44.099Z,85.12
2018-02-12T21:22:12.743Z,84.69
2018-02-12T21:24:41.101Z,85.27
2018-02-12T21:27:09.656Z,84.77
2018-02-12T21:29:38.160Z,85.10
2018-02-12T21:32:06.548Z,85.22
2018-02-12T21:34:34.871Z,85.33
2018-02-12T21:37:08.628Z,85.38
2018-02-12T21:39:37.817Z,85.24
2018-02-12T21:42:06.992Z,85.33
2018-02-12T21:44:36.184Z,84.91
2018-02-12T21:47:05.807Z,85.23
2018-02-12T21:49:35.409Z,85.07
2018-02-12T21:52:03.841Z,85.51
2018-02-12T21:54:32.179Z,85.32
2018-02-12T21:57:01.639Z,85.81
2018-02-12T21:59:32.796Z,85.88
2018-02-12T22:02:05.157Z,85.71
2018-02-12T22:04:34.412Z,86.00
2018-02-12T22:07:03.410Z,86.29
2018-02-12T22:09:31.712Z,86.36
2018-02-12T22:12:00.813Z,86.54
2018-02-12T22:14:29.138Z,86.67
2018-02-12T22:16:57.527Z,86.98
2018-02-12T22:19:25.844Z,87.09
2018-02-12T22:21:55.008Z,87.12
2018-02-12T22:24:23.283Z,87.44
2018-02-12T22:26:55.747Z,87.64
2018-02-12T22:29:28.299Z,88.07
2018-02-12T22:31:58.223Z,88.12
2018-02-12T22:34:26.594Z,88.09
2018-02-12T22:36:54.987Z,88.71
2018-02-12T22:39:23.375Z,88.73
2018-02-12T22:41:58.454Z,88.47
2018-02-12T22:44:26.766Z,88.76
2018-02-12T22:46:55.435Z,88.61
2018-02-12T22:49:23.963Z,88.59
2018-02-12T22:51:52.268Z,88.54
2018-02-12T22:54:20.599Z,88.73
2018-02-12T22:56:50.147Z,88.77
2018-02-12T22:59:18.510Z,88.75
2018-02-12T23:01:47.116Z,88.87
2018-02-12T23:04:16.075Z,88.99
2018-02-12T23:06:44.403Z,89.14
2018-02-12T23:09:14.197Z,89.64
2018-02-12T23:11:42.679Z,89.78
2018-02-12T23:14:11.410Z,89.24
2018-02-12T23:16:40.961Z,88.84
2018-02-12T23:19:10.372Z,88.67
2018-02-12T23:21:39.348Z,89.20
2018-02-12T23:24:09.169Z,88.97
2018-02-12T23:26:38.729Z,88.37
2018-02-12T23:29:07.403Z,88.30
2018-02-12T23:31:36.592Z,88.13
2018-02-12T23:34:05.152Z,88.61
2018-02-12T23:36:33.618Z,89.13
2018-02-12T23:39:03.003Z,89.90
2018-02-12T23:41:32.434Z,90.18
2018-02-12T23:44:02.202Z,89.96
2018-02-12T23:46:30.572Z,90.17
2018-02-12T23:49:03.970Z,90.71
2018-02-12T23:51:37.095Z,90.57
2018-02-12T23:54:06.661Z,91.09
2018-02-12T23:56:35.313Z,90.56
2018-02-12T23:59:05.212Z,89.80
